sensor_id;sensor_type;location;lat;lon;timestamp;temperature;humidity
40816;DHT22;26535;48.788;9.214;2023-07-02T00:00:59;16.60;99.90
40816;DHT22;26535;48.788;9.214;2023-07-02T05:03:45;16.00;99.90
40816;DHT22;26535;48.788;9.214;2023-07-02T05:06:11;16.00;99.90
40816;DHT22;26535;48.788;9.214;2023-07-02T05:08:36;16.10;99.90
40816;DHT22;26535;48.788;9.214;2023-07-02T05:11:02;16.20;99.90
40816;DHT22;26535;48.788;9.214;2023-07-02T05:13:28;16.40;99.90
40816;DHT22;26535;48.788;9.214;2023-07-02T05:15:54;16.60;99.90
40816;DHT22;26535;48.788;9.214;2023-07-02T05:18:19;16.70;99.90
40816;DHT22;26535;48.788;9.214;2023-07-02T05:20:45;16.90;99.90
40816;DHT22;26535;48.788;9.214;2023-07-02T05:23:11;17.00;99.90
40816;DHT22;26535;48.788;9.214;2023-07-02T05:25:36;17.10;99.90
40816;DHT22;26535;48.788;9.214;2023-07-02T05:28:02;17.10;99.90
40816;DHT22;26535;48.788;9.214;2023-07-02T05:30:30;17.10;99.90
40816;DHT22;26535;48.788;9.214;2023-07-02T05:32:56;17.10;99.90
40816;DHT22;26535;48.788;9.214;2023-07-02T05:35:22;17.20;99.90
40816;DHT22;26535;48.788;9.214;2023-07-02T05:37:47;17.20;99.90
40816;DHT22;26535;48.788;9.214;2023-07-02T05:40:16;17.30;99.90
40816;DHT22;26535;48.788;9.214;2023-07-02T05:42:41;17.30;99.90
40816;DHT22;26535;48.788;9.214;2023-07-02T05:45:08;17.20;99.90
40816;DHT22;26535;48.788;9.214;2023-07-02T05:47:34;17.10;99.90
40816;DHT22;26535;48.788;9.214;2023-07-02T05:50:00;17.00;99.90
40816;DHT22;26535;48.788;9.214;2023-07-02T05:52:25;16.90;99.90
40816;DHT22;26535;48.788;9.214;2023-07-02T05:54:51;16.80;99.90
40816;DHT22;26535;48.788;9.214;2023-07-02T05:57:17;16.80;99.90
40816;DHT22;26535;48.788;9.214;2023-07-02T05:59:42;16.90;99.90
40816;DHT22;26535;48.788;9.214;2023-07-02T06:02:08;17.00;99.90
40816;DHT22;26535;48.788;9.214;2023-07-02T06:04:34;17.20;99.90
40816;DHT22;26535;48.788;9.214;2023-07-02T06:06:59;17.30;99.90
40816;DHT22;26535;48.788;9.214;2023-07-02T06:09:25;17.50;99.90
40816;DHT22;26535;48.788;9.214;2023-07-02T06:11:53;17.40;99.90
40816;DHT22;26535;48.788;9.214;2023-07-02T06:14:19;17.50;99.90
40816;DHT22;26535;48.788;9.214;2023-07-02T06:16:45;17.60;99.90
40816;DHT22;26535;48.788;9.214;2023-07-02T06:19:13;17.70;99.90
40816;DHT22;26535;48.788;9.214;2023-07-02T06:21:39;17.70;99.90
40816;DHT22;26535;48.788;9.214;2023-07-02T06:24:05;17.90;99.90
40816;DHT22;26535;48.788;9.214;2023-07-02T06:26:30;18.00;99.90
40816;DHT22;26535;48.788;9.214;2023-07-02T06:28:57;18.10;99.90
40816;DHT22;26535;48.788;9.214;2023-07-02T06:31:24;18.10;99.90
40816;DHT22;26535;48.788;9.214;2023-07-02T06:33:50;18.30;99.90
40816;DHT22;26535;48.788;9.214;2023-07-02T06:36:19;18.40;99.90
40816;DHT22;26535;48.788;9.214;2023-07-02T06:38:45;18.50;99.90
40816;DHT22;26535;48.788;9.214;2023-07-02T06:41:10;18.50;99.90
40816;DHT22;26535;48.788;9.214;2023-07-02T06:43:36;18.70;99.90
40816;DHT22;26535;48.788;9.214;2023-07-02T06:46:02;18.90;99.90
40816;DHT22;26535;48.788;9.214;2023-07-02T06:48:30;19.00;99.90
40816;DHT22;26535;48.788;9.214;2023-07-02T06:50:56;19.10;99.70
40816;DHT22;26535;48.788;9.214;2023-07-02T06:53:22;19.30;99.00
40816;DHT22;26535;48.788;9.214;2023-07-02T06:55:47;19.40;98.40
40816;DHT22;26535;48.788;9.214;2023-07-02T06:58:13;19.50;98.00
40816;DHT22;26535;48.788;9.214;2023-07-02T07:00:39;19.40;97.70
40816;DHT22;26535;48.788;9.214;2023-07-02T07:03:05;19.60;97.40
40816;DHT22;26535;48.788;9.214;2023-07-02T07:05:31;19.60;96.70
40816;DHT22;26535;48.788;9.214;2023-07-02T07:07:58;19.60;96.60
40816;DHT22;26535;48.788;9.214;2023-07-02T07:10:24;19.70;96.70
40816;DHT22;26535;48.788;9.214;2023-07-02T07:12:50;19.70;96.10
40816;DHT22;26535;48.788;9.214;2023-07-02T07:15:15;19.80;96.60
40816;DHT22;26535;48.788;9.214;2023-07-02T07:17:41;19.90;96.10
40816;DHT22;26535;48.788;9.214;2023-07-02T07:20:07;20.00;95.70
40816;DHT22;26535;48.788;9.214;2023-07-02T07:22:33;20.10;95.80
40816;DHT22;26535;48.788;9.214;2023-07-02T07:25:00;20.20;95.20
40816;DHT22;26535;48.788;9.214;2023-07-02T07:27:25;20.00;95.00
40816;DHT22;26535;48.788;9.214;2023-07-02T07:29:51;19.80;94.90
40816;DHT22;26535;48.788;9.214;2023-07-02T07:32:17;19.80;95.40
40816;DHT22;26535;48.788;9.214;2023-07-02T07:34:45;19.90;95.00
40816;DHT22;26535;48.788;9.214;2023-07-02T07:37:11;20.10;95.50
40816;DHT22;26535;48.788;9.214;2023-07-02T07:39:37;20.20;94.40
40816;DHT22;26535;48.788;9.214;2023-07-02T07:42:03;20.20;93.40
40816;DHT22;26535;48.788;9.214;2023-07-02T07:44:28;20.20;92.20
40816;DHT22;26535;48.788;9.214;2023-07-02T07:46:57;20.00;92.00
40816;DHT22;26535;48.788;9.214;2023-07-02T07:49:23;20.20;92.00
40816;DHT22;26535;48.788;9.214;2023-07-02T07:51:49;20.30;91.60
40816;DHT22;26535;48.788;9.214;2023-07-02T07:54:14;20.70;90.50
40816;DHT22;26535;48.788;9.214;2023-07-02T07:56:43;20.70;90.50
40816;DHT22;26535;48.788;9.214;2023-07-02T07:59:09;20.70;90.60
40816;DHT22;26535;48.788;9.214;2023-07-02T08:01:36;20.70;88.70
40816;DHT22;26535;48.788;9.214;2023-07-02T08:04:02;20.70;90.00
40816;DHT22;26535;48.788;9.214;2023-07-02T08:06:28;21.00;89.20
40816;DHT22;26535;48.788;9.214;2023-07-02T08:08:53;21.00;87.50
40816;DHT22;26535;48.788;9.214;2023-07-02T08:11:19;20.70;88.10
40816;DHT22;26535;48.788;9.214;2023-07-02T08:13:45;20.70;88.80
40816;DHT22;26535;48.788;9.214;2023-07-02T08:16:10;20.60;88.80
40816;DHT22;26535;48.788;9.214;2023-07-02T08:18:36;20.50;88.10
40816;DHT22;26535;48.788;9.214;2023-07-02T08:21:02;20.60;88.40
40816;DHT22;26535;48.788;9.214;2023-07-02T08:23:28;20.60;87.60
40816;DHT22;26535;48.788;9.214;2023-07-02T08:25:53;20.70;87.00
40816;DHT22;26535;48.788;9.214;2023-07-02T08:28:19;20.70;87.20
40816;DHT22;26535;48.788;9.214;2023-07-02T08:30:45;20.80;87.90
40816;DHT22;26535;48.788;9.214;2023-07-02T08:33:10;20.80;86.00
40816;DHT22;26535;48.788;9.214;2023-07-02T08:35:36;20.70;86.20
40816;DHT22;26535;48.788;9.214;2023-07-02T08:38:02;20.70;86.60
40816;DHT22;26535;48.788;9.214;2023-07-02T08:40:28;20.80;86.90
40816;DHT22;26535;48.788;9.214;2023-07-02T08:42:55;21.00;86.00
40816;DHT22;26535;48.788;9.214;2023-07-02T08:45:23;21.10;85.00
40816;DHT22;26535;48.788;9.214;2023-07-02T08:47:50;21.20;85.40
40816;DHT22;26535;48.788;9.214;2023-07-02T08:50:16;21.40;83.20
40816;DHT22;26535;48.788;9.214;2023-07-02T08:52:42;21.20;84.40
40816;DHT22;26535;48.788;9.214;2023-07-02T08:55:11;21.30;84.10
40816;DHT22;26535;48.788;9.214;2023-07-02T08:57:36;21.20;82.60
40816;DHT22;26535;48.788;9.214;2023-07-02T09:00:08;21.20;81.70
40816;DHT22;26535;48.788;9.214;2023-07-02T09:02:35;21.30;81.50
40816;DHT22;26535;48.788;9.214;2023-07-02T09:05:01;21.40;82.20
40816;DHT22;26535;48.788;9.214;2023-07-02T09:07:27;21.70;82.10
40816;DHT22;26535;48.788;9.214;2023-07-02T09:09:54;21.80;80.00
40816;DHT22;26535;48.788;9.214;2023-07-02T09:12:27;21.80;78.50
40816;DHT22;26535;48.788;9.214;2023-07-02T09:14:58;21.70;77.80
40816;DHT22;26535;48.788;9.214;2023-07-02T09:17:28;21.80;77.90
40816;DHT22;26535;48.788;9.214;2023-07-02T09:19:55;22.00;77.70
40816;DHT22;26535;48.788;9.214;2023-07-02T09:22:21;22.10;76.30
40816;DHT22;26535;48.788;9.214;2023-07-02T09:24:54;22.30;75.90
40816;DHT22;26535;48.788;9.214;2023-07-02T09:27:21;22.30;76.50
40816;DHT22;26535;48.788;9.214;2023-07-02T09:29:52;22.30;76.70
40816;DHT22;26535;48.788;9.214;2023-07-02T09:32:25;22.40;76.90
40816;DHT22;26535;48.788;9.214;2023-07-02T09:34:55;22.20;76.40
40816;DHT22;26535;48.788;9.214;2023-07-02T09:37:23;22.20;77.20
40816;DHT22;26535;48.788;9.214;2023-07-02T09:39:50;22.20;77.10
40816;DHT22;26535;48.788;9.214;2023-07-02T09:42:17;22.40;76.90
40816;DHT22;26535;48.788;9.214;2023-07-02T09:44:45;22.60;75.70
40816;DHT22;26535;48.788;9.214;2023-07-02T09:47:13;22.70;75.40
40816;DHT22;26535;48.788;9.214;2023-07-02T09:49:45;22.90;76.10
40816;DHT22;26535;48.788;9.214;2023-07-02T09:52:14;23.00;74.50
40816;DHT22;26535;48.788;9.214;2023-07-02T09:54:41;23.20;73.70
40816;DHT22;26535;48.788;9.214;2023-07-02T09:57:07;23.40;73.30
40816;DHT22;26535;48.788;9.214;2023-07-02T09:59:33;23.10;72.70
40816;DHT22;26535;48.788;9.214;2023-07-02T10:01:59;23.10;73.90
40816;DHT22;26535;48.788;9.214;2023-07-02T10:04:25;23.20;74.70
40816;DHT22;26535;48.788;9.214;2023-07-02T10:06:55;23.30;74.00
40816;DHT22;26535;48.788;9.214;2023-07-02T10:09:38;23.30;73.20
40816;DHT22;26535;48.788;9.214;2023-07-02T10:12:23;23.60;73.70
40816;DHT22;26535;48.788;9.214;2023-07-02T10:14:51;23.80;72.80
40816;DHT22;26535;48.788;9.214;2023-07-02T10:17:27;23.90;73.10
40816;DHT22;26535;48.788;9.214;2023-07-02T10:19:58;24.10;73.20
40816;DHT22;26535;48.788;9.214;2023-07-02T10:22:24;24.20;73.10
40816;DHT22;26535;48.788;9.214;2023-07-02T10:24:58;24.20;71.80
40816;DHT22;26535;48.788;9.214;2023-07-02T10:27:42;24.20;71.20
40816;DHT22;26535;48.788;9.214;2023-07-02T10:30:09;24.40;72.20
40816;DHT22;26535;48.788;9.214;2023-07-02T10:32:36;24.20;71.50
40816;DHT22;26535;48.788;9.214;2023-07-02T10:35:19;24.00;72.50
40816;DHT22;26535;48.788;9.214;2023-07-02T10:37:45;23.60;73.40
40816;DHT22;26535;48.788;9.214;2023-07-02T10:40:12;23.20;74.90
40816;DHT22;26535;48.788;9.214;2023-07-02T10:42:47;23.10;74.80
40816;DHT22;26535;48.788;9.214;2023-07-02T10:45:14;23.40;73.90
40816;DHT22;26535;48.788;9.214;2023-07-02T10:47:40;23.50;73.20
40816;DHT22;26535;48.788;9.214;2023-07-02T10:50:17;23.50;73.00
40816;DHT22;26535;48.788;9.214;2023-07-02T10:52:43;23.50;73.00
40816;DHT22;26535;48.788;9.214;2023-07-02T10:55:08;23.40;73.50
40816;DHT22;26535;48.788;9.214;2023-07-02T10:57:35;23.50;73.70
40816;DHT22;26535;48.788;9.214;2023-07-02T11:00:05;23.60;73.40
40816;DHT22;26535;48.788;9.214;2023-07-02T11:02:36;23.80;73.10
40816;DHT22;26535;48.788;9.214;2023-07-02T11:05:06;24.20;73.20
40816;DHT22;26535;48.788;9.214;2023-07-02T11:07:33;24.40;70.70
40816;DHT22;26535;48.788;9.214;2023-07-02T11:09:58;24.50;69.40
40816;DHT22;26535;48.788;9.214;2023-07-02T11:12:29;24.70;67.70
40816;DHT22;26535;48.788;9.214;2023-07-02T11:14:54;24.60;67.30
40816;DHT22;26535;48.788;9.214;2023-07-02T11:17:25;24.60;68.00
40816;DHT22;26535;48.788;9.214;2023-07-02T11:19:53;24.90;67.60
40816;DHT22;26535;48.788;9.214;2023-07-02T11:22:19;25.20;67.20
40816;DHT22;26535;48.788;9.214;2023-07-02T11:24:45;25.30;66.10
40816;DHT22;26535;48.788;9.214;2023-07-02T11:27:20;25.10;65.60
40816;DHT22;26535;48.788;9.214;2023-07-02T11:29:47;25.30;65.70
40816;DHT22;26535;48.788;9.214;2023-07-02T11:32:13;25.50;65.80
40816;DHT22;26535;48.788;9.214;2023-07-02T11:34:39;26.00;66.60
40816;DHT22;26535;48.788;9.214;2023-07-02T11:37:06;26.30;64.80
40816;DHT22;26535;48.788;9.214;2023-07-02T11:39:32;26.90;64.10
40816;DHT22;26535;48.788;9.214;2023-07-02T11:41:58;26.90;62.60
40816;DHT22;26535;48.788;9.214;2023-07-02T11:44:23;26.50;63.50
40816;DHT22;26535;48.788;9.214;2023-07-02T11:46:49;26.50;62.30
40816;DHT22;26535;48.788;9.214;2023-07-02T11:49:15;26.30;62.40
40816;DHT22;26535;48.788;9.214;2023-07-02T11:51:42;26.40;62.90
40816;DHT22;26535;48.788;9.214;2023-07-02T11:54:14;27.20;61.40
40816;DHT22;26535;48.788;9.214;2023-07-02T11:56:39;27.70;59.70
40816;DHT22;26535;48.788;9.214;2023-07-02T11:59:08;28.00;59.50
40816;DHT22;26535;48.788;9.214;2023-07-02T12:01:34;28.90;59.60
40816;DHT22;26535;48.788;9.214;2023-07-02T12:04:00;29.70;57.70
40816;DHT22;26535;48.788;9.214;2023-07-02T12:06:25;29.20;57.40
40816;DHT22;26535;48.788;9.214;2023-07-02T12:08:51;30.40;55.60
40816;DHT22;26535;48.788;9.214;2023-07-02T12:11:17;30.30;55.20
40816;DHT22;26535;48.788;9.214;2023-07-02T12:13:43;30.70;55.10
40816;DHT22;26535;48.788;9.214;2023-07-02T12:16:10;31.00;55.10
40816;DHT22;26535;48.788;9.214;2023-07-02T12:18:35;32.60;52.90
40816;DHT22;26535;48.788;9.214;2023-07-02T12:21:01;33.90;50.80
40816;DHT22;26535;48.788;9.214;2023-07-02T12:23:27;34.10;51.30
40816;DHT22;26535;48.788;9.214;2023-07-02T12:25:52;34.00;49.60
40816;DHT22;26535;48.788;9.214;2023-07-02T12:28:18;33.90;49.10
40816;DHT22;26535;48.788;9.214;2023-07-02T12:30:44;33.50;50.00
40816;DHT22;26535;48.788;9.214;2023-07-02T12:33:09;34.90;49.20
40816;DHT22;26535;48.788;9.214;2023-07-02T12:35:35;35.50;47.50
40816;DHT22;26535;48.788;9.214;2023-07-02T12:38:01;33.90;48.10
40816;DHT22;26535;48.788;9.214;2023-07-02T12:40:29;34.00;48.80
40816;DHT22;26535;48.788;9.214;2023-07-02T12:42:54;34.60;49.00
40816;DHT22;26535;48.788;9.214;2023-07-02T12:45:21;35.90;48.00
40816;DHT22;26535;48.788;9.214;2023-07-02T12:47:47;36.50;46.90
40816;DHT22;26535;48.788;9.214;2023-07-02T12:50:13;36.00;46.20
40816;DHT22;26535;48.788;9.214;2023-07-02T12:52:39;35.60;46.60
40816;DHT22;26535;48.788;9.214;2023-07-02T12:55:05;35.10;46.30
40816;DHT22;26535;48.788;9.214;2023-07-02T12:57:31;35.00;46.90
40816;DHT22;26535;48.788;9.214;2023-07-02T12:59:57;35.80;46.30
40816;DHT22;26535;48.788;9.214;2023-07-02T13:02:23;36.20;46.10
40816;DHT22;26535;48.788;9.214;2023-07-02T13:04:49;37.20;45.00
40816;DHT22;26535;48.788;9.214;2023-07-02T13:07:16;36.20;45.20
40816;DHT22;26535;48.788;9.214;2023-07-02T13:09:42;35.50;45.00
40816;DHT22;26535;48.788;9.214;2023-07-02T13:12:09;36.20;46.30
40816;DHT22;26535;48.788;9.214;2023-07-02T13:14:35;37.10;44.70
40816;DHT22;26535;48.788;9.214;2023-07-02T13:17:01;36.40;44.40
40816;DHT22;26535;48.788;9.214;2023-07-02T13:19:28;35.20;45.00
40816;DHT22;26535;48.788;9.214;2023-07-02T13:21:54;35.00;45.50
40816;DHT22;26535;48.788;9.214;2023-07-02T13:24:20;34.70;45.40
40816;DHT22;26535;48.788;9.214;2023-07-02T13:26:45;35.40;45.40
40816;DHT22;26535;48.788;9.214;2023-07-02T13:29:11;36.90;44.00
40816;DHT22;26535;48.788;9.214;2023-07-02T13:31:37;36.80;44.30
40816;DHT22;26535;48.788;9.214;2023-07-02T13:34:03;37.40;43.70
40816;DHT22;26535;48.788;9.214;2023-07-02T13:36:28;37.50;43.90
40816;DHT22;26535;48.788;9.214;2023-07-02T13:38:54;36.30;43.90
40816;DHT22;26535;48.788;9.214;2023-07-02T13:41:20;36.70;44.50
40816;DHT22;26535;48.788;9.214;2023-07-02T13:43:46;37.00;43.30
40816;DHT22;26535;48.788;9.214;2023-07-02T13:46:12;37.00;44.00
40816;DHT22;26535;48.788;9.214;2023-07-02T13:48:38;38.20;43.00
40816;DHT22;26535;48.788;9.214;2023-07-02T13:51:04;38.00;43.40
40816;DHT22;26535;48.788;9.214;2023-07-02T13:53:30;37.10;43.00
40816;DHT22;26535;48.788;9.214;2023-07-02T13:55:57;37.80;43.10
40816;DHT22;26535;48.788;9.214;2023-07-02T13:58:23;38.00;43.00
40816;DHT22;26535;48.788;9.214;2023-07-02T14:00:49;38.00;42.80
40816;DHT22;26535;48.788;9.214;2023-07-02T14:03:14;38.70;42.40
40816;DHT22;26535;48.788;9.214;2023-07-02T14:05:40;38.40;42.90
40816;DHT22;26535;48.788;9.214;2023-07-02T14:08:06;38.70;42.90
40816;DHT22;26535;48.788;9.214;2023-07-02T14:10:32;38.80;41.50
40816;DHT22;26535;48.788;9.214;2023-07-02T14:12:58;38.20;41.60
40816;DHT22;26535;48.788;9.214;2023-07-02T14:15:24;37.60;42.90
40816;DHT22;26535;48.788;9.214;2023-07-02T14:17:51;38.00;42.20
40816;DHT22;26535;48.788;9.214;2023-07-02T14:20:17;38.20;42.70
40816;DHT22;26535;48.788;9.214;2023-07-02T14:22:43;39.00;42.50
40816;DHT22;26535;48.788;9.214;2023-07-02T14:25:09;39.10;43.20
40816;DHT22;26535;48.788;9.214;2023-07-02T14:27:34;38.10;44.80
40816;DHT22;26535;48.788;9.214;2023-07-02T14:30:00;37.50;45.10
40816;DHT22;26535;48.788;9.214;2023-07-02T14:32:27;37.00;44.70
40816;DHT22;26535;48.788;9.214;2023-07-02T14:34:53;38.10;44.10
40816;DHT22;26535;48.788;9.214;2023-07-02T14:37:19;38.40;42.80
40816;DHT22;26535;48.788;9.214;2023-07-02T14:39:45;38.00;42.80
40816;DHT22;26535;48.788;9.214;2023-07-02T14:42:10;38.10;42.00
40816;DHT22;26535;48.788;9.214;2023-07-02T14:44:36;37.90;42.80
40816;DHT22;26535;48.788;9.214;2023-07-02T14:47:02;36.90;42.80
40816;DHT22;26535;48.788;9.214;2023-07-02T14:49:27;36.80;44.10
40816;DHT22;26535;48.788;9.214;2023-07-02T14:51:53;38.00;42.50
40816;DHT22;26535;48.788;9.214;2023-07-02T14:54:19;39.70;42.30
40816;DHT22;26535;48.788;9.214;2023-07-02T14:56:44;39.60;40.80
40816;DHT22;26535;48.788;9.214;2023-07-02T14:59:10;39.00;41.60
40816;DHT22;26535;48.788;9.214;2023-07-02T15:01:36;38.30;41.80
40816;DHT22;26535;48.788;9.214;2023-07-02T15:04:01;39.30;42.20
40816;DHT22;26535;48.788;9.214;2023-07-02T15:06:27;39.20;40.90
40816;DHT22;26535;48.788;9.214;2023-07-02T15:08:53;38.50;41.60
40816;DHT22;26535;48.788;9.214;2023-07-02T15:11:19;37.70;42.00
40816;DHT22;26535;48.788;9.214;2023-07-02T15:13:45;37.50;42.10
40816;DHT22;26535;48.788;9.214;2023-07-02T15:16:12;38.30;42.50
40816;DHT22;26535;48.788;9.214;2023-07-02T15:18:38;39.20;41.80
40816;DHT22;26535;48.788;9.214;2023-07-02T15:21:05;40.10;41.70
40816;DHT22;26535;48.788;9.214;2023-07-02T15:23:31;39.80;41.30
40816;DHT22;26535;48.788;9.214;2023-07-02T15:26:03;40.20;41.60
40816;DHT22;26535;48.788;9.214;2023-07-02T15:28:30;39.60;40.90
40816;DHT22;26535;48.788;9.214;2023-07-02T15:31:08;39.20;41.20
40816;DHT22;26535;48.788;9.214;2023-07-02T15:33:35;38.70;41.20
40816;DHT22;26535;48.788;9.214;2023-07-02T15:36:02;39.10;41.10
40816;DHT22;26535;48.788;9.214;2023-07-02T15:38:28;38.10;41.80
40816;DHT22;26535;48.788;9.214;2023-07-02T15:41:06;38.70;41.80
40816;DHT22;26535;48.788;9.214;2023-07-02T15:43:33;38.60;41.80
40816;DHT22;26535;48.788;9.214;2023-07-02T15:45:59;39.80;41.10
40816;DHT22;26535;48.788;9.214;2023-07-02T15:48:24;40.20;41.00
40816;DHT22;26535;48.788;9.214;2023-07-02T15:50:50;39.90;40.90
40816;DHT22;26535;48.788;9.214;2023-07-02T15:53:16;39.20;41.20
40816;DHT22;26535;48.788;9.214;2023-07-02T15:55:44;39.20;41.20
40816;DHT22;26535;48.788;9.214;2023-07-02T15:58:09;38.80;41.20
40816;DHT22;26535;48.788;9.214;2023-07-02T16:00:35;36.90;42.70
40816;DHT22;26535;48.788;9.214;2023-07-02T16:03:01;36.90;43.10
40816;DHT22;26535;48.788;9.214;2023-07-02T16:05:27;36.90;43.90
40816;DHT22;26535;48.788;9.214;2023-07-02T16:07:52;38.30;42.40
40816;DHT22;26535;48.788;9.214;2023-07-02T16:10:18;39.60;41.70
40816;DHT22;26535;48.788;9.214;2023-07-02T16:12:44;39.20;41.00
40816;DHT22;26535;48.788;9.214;2023-07-02T16:15:11;38.90;41.30
40816;DHT22;26535;48.788;9.214;2023-07-02T16:17:38;38.60;41.20
40816;DHT22;26535;48.788;9.214;2023-07-02T16:20:04;39.40;41.20
40816;DHT22;26535;48.788;9.214;2023-07-02T16:22:30;39.10;41.20
40816;DHT22;26535;48.788;9.214;2023-07-02T16:24:55;38.60;41.20
40816;DHT22;26535;48.788;9.214;2023-07-02T16:27:21;37.50;41.90
40816;DHT22;26535;48.788;9.214;2023-07-02T16:29:47;36.80;42.50
40816;DHT22;26535;48.788;9.214;2023-07-02T16:32:13;37.20;42.30
40816;DHT22;26535;48.788;9.214;2023-07-02T16:34:39;37.50;42.60
40816;DHT22;26535;48.788;9.214;2023-07-02T16:37:05;39.30;41.40
40816;DHT22;26535;48.788;9.214;2023-07-02T16:39:31;38.90;41.90
40816;DHT22;26535;48.788;9.214;2023-07-02T16:41:57;38.70;40.80
40816;DHT22;26535;48.788;9.214;2023-07-02T16:44:25;37.30;41.90
40816;DHT22;26535;48.788;9.214;2023-07-02T16:46:52;35.90;43.00
40816;DHT22;26535;48.788;9.214;2023-07-02T16:49:21;36.80;42.50
40816;DHT22;26535;48.788;9.214;2023-07-02T16:51:48;37.10;42.40
40816;DHT22;26535;48.788;9.214;2023-07-02T16:54:15;36.80;43.10
40816;DHT22;26535;48.788;9.214;2023-07-02T16:57:00;36.50;43.30
40816;DHT22;26535;48.788;9.214;2023-07-02T16:59:28;35.80;43.70
40816;DHT22;26535;48.788;9.214;2023-07-02T17:01:57;35.10;43.50
40816;DHT22;26535;48.788;9.214;2023-07-02T17:04:24;34.60;44.50
40816;DHT22;26535;48.788;9.214;2023-07-02T17:06:54;34.40;44.80
40816;DHT22;26535;48.788;9.214;2023-07-02T17:09:33;35.00;44.80
40816;DHT22;26535;48.788;9.214;2023-07-02T17:12:00;34.40;44.00
40816;DHT22;26535;48.788;9.214;2023-07-02T17:14:28;33.60;45.10
40816;DHT22;26535;48.788;9.214;2023-07-02T17:16:58;33.40;44.80
40816;DHT22;26535;48.788;9.214;2023-07-02T17:19:34;32.70;45.70
40816;DHT22;26535;48.788;9.214;2023-07-02T17:22:01;33.70;44.70
40816;DHT22;26535;48.788;9.214;2023-07-02T17:24:29;33.10;44.90
40816;DHT22;26535;48.788;9.214;2023-07-02T17:26:56;33.60;45.10
40816;DHT22;26535;48.788;9.214;2023-07-02T17:29:23;34.10;44.40
40816;DHT22;26535;48.788;9.214;2023-07-02T17:31:51;33.90;45.10
40816;DHT22;26535;48.788;9.214;2023-07-02T17:34:19;33.40;44.60
40816;DHT22;26535;48.788;9.214;2023-07-02T17:36:48;32.50;46.10
40816;DHT22;26535;48.788;9.214;2023-07-02T17:39:15;31.60;47.00
40816;DHT22;26535;48.788;9.214;2023-07-02T17:41:41;30.70;47.80
40816;DHT22;26535;48.788;9.214;2023-07-02T17:44:07;30.50;47.90
40816;DHT22;26535;48.788;9.214;2023-07-02T17:46:33;30.30;48.20
40816;DHT22;26535;48.788;9.214;2023-07-02T17:48:59;30.20;48.40
40816;DHT22;26535;48.788;9.214;2023-07-02T17:51:25;30.00;48.90
40816;DHT22;26535;48.788;9.214;2023-07-02T17:53:53;30.00;48.80
40816;DHT22;26535;48.788;9.214;2023-07-02T17:56:19;29.30;49.40
40816;DHT22;26535;48.788;9.214;2023-07-02T17:58:45;29.00;50.40
40816;DHT22;26535;48.788;9.214;2023-07-02T18:01:10;29.60;49.90
40816;DHT22;26535;48.788;9.214;2023-07-02T18:03:36;29.90;49.40
40816;DHT22;26535;48.788;9.214;2023-07-02T18:06:02;30.10;49.00
40816;DHT22;26535;48.788;9.214;2023-07-02T18:08:27;30.40;48.50
40816;DHT22;26535;48.788;9.214;2023-07-02T18:10:53;30.40;48.50
40816;DHT22;26535;48.788;9.214;2023-07-02T18:13:21;29.70;49.30
40816;DHT22;26535;48.788;9.214;2023-07-02T18:15:47;29.40;49.80
40816;DHT22;26535;48.788;9.214;2023-07-02T18:18:15;29.20;50.20
40816;DHT22;26535;48.788;9.214;2023-07-02T18:20:41;28.90;50.50
40816;DHT22;26535;48.788;9.214;2023-07-02T18:23:08;28.80;50.80
40816;DHT22;26535;48.788;9.214;2023-07-02T18:25:34;28.90;50.80
40816;DHT22;26535;48.788;9.214;2023-07-02T18:28:07;29.20;50.40
40816;DHT22;26535;48.788;9.214;2023-07-02T18:30:33;29.30;50.20
40816;DHT22;26535;48.788;9.214;2023-07-02T18:32:59;29.10;50.20
40816;DHT22;26535;48.788;9.214;2023-07-02T18:35:25;28.50;50.90
40816;DHT22;26535;48.788;9.214;2023-07-02T18:37:51;27.80;51.60
40816;DHT22;26535;48.788;9.214;2023-07-02T18:40:16;27.20;52.70
40816;DHT22;26535;48.788;9.214;2023-07-02T18:42:48;26.60;53.50
40816;DHT22;26535;48.788;9.214;2023-07-02T18:45:14;26.30;54.50
40816;DHT22;26535;48.788;9.214;2023-07-02T18:47:42;26.00;54.70
40816;DHT22;26535;48.788;9.214;2023-07-02T18:50:08;25.70;55.20
40816;DHT22;26535;48.788;9.214;2023-07-02T18:52:34;25.50;55.60
40816;DHT22;26535;48.788;9.214;2023-07-02T18:55:00;25.10;56.10
40816;DHT22;26535;48.788;9.214;2023-07-02T18:57:26;24.70;56.60
40816;DHT22;26535;48.788;9.214;2023-07-02T18:59:51;24.50;56.90
40816;DHT22;26535;48.788;9.214;2023-07-02T19:02:18;24.40;57.40
40816;DHT22;26535;48.788;9.214;2023-07-02T19:04:51;24.20;57.90
40816;DHT22;26535;48.788;9.214;2023-07-02T19:07:18;24.00;58.40
40816;DHT22;26535;48.788;9.214;2023-07-02T19:09:43;23.80;58.40
40816;DHT22;26535;48.788;9.214;2023-07-02T19:12:09;23.70;58.70
40816;DHT22;26535;48.788;9.214;2023-07-02T19:14:36;23.60;59.00
40816;DHT22;26535;48.788;9.214;2023-07-02T19:17:05;23.50;59.30
40816;DHT22;26535;48.788;9.214;2023-07-02T19:19:32;23.30;59.60
40816;DHT22;26535;48.788;9.214;2023-07-02T19:21:58;23.20;59.90
40816;DHT22;26535;48.788;9.214;2023-07-02T19:24:23;23.10;60.00
40816;DHT22;26535;48.788;9.214;2023-07-02T19:26:50;22.90;60.90
40816;DHT22;26535;48.788;9.214;2023-07-02T19:29:20;22.80;60.80
40816;DHT22;26535;48.788;9.214;2023-07-02T19:31:46;22.60;61.30
40816;DHT22;26535;48.788;9.214;2023-07-02T19:34:16;22.50;61.50
40816;DHT22;26535;48.788;9.214;2023-07-02T19:36:45;22.50;61.50
40816;DHT22;26535;48.788;9.214;2023-07-02T19:39:18;22.40;61.90
40816;DHT22;26535;48.788;9.214;2023-07-02T19:41:45;22.40;62.00
40816;DHT22;26535;48.788;9.214;2023-07-02T19:44:13;22.20;62.40
40816;DHT22;26535;48.788;9.214;2023-07-02T19:46:39;22.00;62.60
40816;DHT22;26535;48.788;9.214;2023-07-02T19:49:05;22.00;63.00
40816;DHT22;26535;48.788;9.214;2023-07-02T19:51:33;21.90;63.20
40816;DHT22;26535;48.788;9.214;2023-07-02T19:53:59;21.90;63.40
40816;DHT22;26535;48.788;9.214;2023-07-02T19:56:31;21.80;63.80
40816;DHT22;26535;48.788;9.214;2023-07-02T19:58:57;21.70;64.00
40816;DHT22;26535;48.788;9.214;2023-07-02T20:01:23;21.60;64.30
40816;DHT22;26535;48.788;9.214;2023-07-02T20:03:51;21.50;64.70
40816;DHT22;26535;48.788;9.214;2023-07-02T20:06:19;21.40;65.10
40816;DHT22;26535;48.788;9.214;2023-07-02T20:08:45;21.30;65.60
40816;DHT22;26535;48.788;9.214;2023-07-02T20:11:12;21.20;66.00
40816;DHT22;26535;48.788;9.214;2023-07-02T20:13:38;21.00;66.10
40816;DHT22;26535;48.788;9.214;2023-07-02T20:16:04;21.00;66.50
40816;DHT22;26535;48.788;9.214;2023-07-02T20:18:30;21.00;66.60
40816;DHT22;26535;48.788;9.214;2023-07-02T20:21:05;20.90;66.90
40816;DHT22;26535;48.788;9.214;2023-07-02T20:23:32;20.80;67.30
40816;DHT22;26535;48.788;9.214;2023-07-02T20:25:58;20.80;67.20
40816;DHT22;26535;48.788;9.214;2023-07-02T20:28:25;20.80;67.60